Blacklick, Ohio
Current Conditions -  °F | °C
As of 3:51 AM on Friday 24 Oct 2014 (Local Time) from KCMH Reporting Station
Overcast Overcast  
Wind Chill: 40°   Ceiling: 20000
Heat Index: 40°   Visibility: 10mi
Dew Point: 37°   Wind: 0mph
Humidity: 89%   Direction: NA
Pressure: 30.12"   Gusts: NA
Location:  40°N, 82.81°W
Report Text: KCMH 240751Z 00000KT 10SM OVC200 04/03 A3012 RMK AO2 SLP200 T00440028
Loading
Personal Weather Stations






























Interactive Weather Map
Tropical Storm Tracking
New forecast layout! Learn more

10-Day Weather Forecast

Advertisements
Track Severe Weather on mobile